Portada
METAR-TAF:

METAR-TAF

Aeroports :

Tampico, Mèxic

latitud: 22-17N, longitud: 097-52W, altitud: 24 m

Observació

L'informe es va fer fa 7 hores i 25 minuts, a les 01:44 UTC
Vent calma
Temperatura 26°C
Humitat 79%
Pressió 1014 hPa
Visibilitat: 11.3 km
Cel clar

METAR: MMTM 210144Z 00000KT 7SM SKC 26/22 A2993 METAR

Hora: 04:09 (09:09 UTC)

Pronòstic

L'informe es va fer fa 5 hores i 47 minuts, a les 03:22 UTC
Pronòstic vàlid del 21 a les 06 UTC al 22 a les 06 UTC
Vent 5 kt del Nord-Est
Visibilitat: 9.7 km
Cel clar
calitja
A partir de les 21 a les 1800 UTC
Vent 10 kt del Nord/Nord-Oest
Visibilitat: 9.7 km
Cel clar
calitja
A partir de les 22 a les 0300 UTC
Vent 5 kt del Nord/Nord-Oest
Visibilitat: 9.7 km
Núvols disperses a una alçada de 1500 ft
calitja

TAF: MMTM 210322Z 2106/2206 04005KT 6SM HZ SKC FM211800 33010KT 6SM HZ SKC FM220300 33005KT 6SM HZ SCT015

Observacions i pronòstics meteorològics de més de 4000 aeroports (METAR i TAF).

Les estacions disponibles són els punts grocs i vermells al mapa.

Posi el ratolí al punt desitjat per veure el nom de l'estació.

Feu clic per veure les observacions i els pronòstics meteorològics.

Per canviar el mapa: feu clic els botons verds amb una creu de color negre per apropar; al botó verd amb un guió per allunyar la imatge; o en les fletxes verdes per a mapes adjacents.


METAR-TAF: